createdAt,value
2022-11-08T00:00:48.707Z,18.95
2022-11-08T00:03:17.750Z,22.38
2022-11-08T00:06:04.912Z,18.65
2022-11-08T00:08:51.954Z,19.52
2022-11-08T00:11:39.221Z,21.55
2022-11-08T00:14:08.220Z,20.88
2022-11-08T00:16:37.238Z,22.30
2022-11-08T00:19:06.286Z,25.50
2022-11-08T00:21:35.145Z,21.27
2022-11-08T00:24:04.428Z,22.92
2022-11-08T00:26:33.453Z,21.30
2022-11-08T00:29:02.473Z,26.65
2022-11-08T00:31:31.473Z,23.15
2022-11-08T00:34:00.470Z,21.13
2022-11-08T00:36:29.467Z,20.25
2022-11-08T00:38:58.468Z,19.27
2022-11-08T00:41:27.395Z,20.02
2022-11-08T00:43:56.409Z,22.48
2022-11-08T00:46:25.552Z,20.80
2022-11-08T00:48:54.691Z,19.65
2022-11-08T00:51:23.738Z,19.63
2022-11-08T00:53:52.684Z,19.70
2022-11-08T00:56:21.627Z,17.85
2022-11-08T00:58:50.764Z,17.35
2022-11-08T01:01:22.352Z,18.45
2022-11-08T01:03:52.135Z,24.55
2022-11-08T01:06:23.489Z,23.88
2022-11-08T01:08:52.787Z,22.73
2022-11-08T01:11:24.060Z,18.42
2022-11-08T01:13:54.179Z,18.10
2022-11-08T01:16:25.976Z,21.30
2022-11-08T01:18:56.971Z,25.60
2022-11-08T01:21:26.902Z,24.95
2022-11-08T01:23:56.471Z,17.10
2022-11-08T01:26:28.444Z,17.23
2022-11-08T01:28:59.504Z,17.35
2022-11-08T01:31:31.493Z,24.10
2022-11-08T01:34:01.607Z,17.40
2022-11-08T01:36:31.542Z,17.40
2022-11-08T01:39:01.015Z,16.90
2022-11-08T01:41:31.221Z,23.48
2022-11-08T01:44:01.888Z,17.40
2022-11-08T01:46:41.000Z,15.93
2022-11-08T01:49:23.396Z,16.58
2022-11-08T01:52:19.325Z,17.33
2022-11-08T01:54:58.464Z,17.55
2022-11-08T01:57:40.001Z,19.35
2022-11-08T02:00:13.775Z,18.63
2022-11-08T02:02:45.645Z,20.98
2022-11-08T02:05:27.410Z,17.08
2022-11-08T02:08:16.985Z,16.70
2022-11-08T02:10:49.699Z,17.48
2022-11-08T02:13:25.853Z,17.35
2022-11-08T02:15:55.262Z,16.88
2022-11-08T02:18:28.291Z,19.10
2022-11-08T02:21:11.223Z,18.38
2022-11-08T02:23:49.185Z,16.90
2022-11-08T02:26:20.584Z,16.75
2022-11-08T02:28:51.487Z,17.20
2022-11-08T02:31:21.653Z,19.10
2022-11-08T02:33:51.298Z,17.35
2022-11-08T02:36:23.356Z,17.30
2022-11-08T02:38:56.709Z,17.45
2022-11-08T02:41:25.675Z,15.53
2022-11-08T02:43:54.588Z,17.20
2022-11-08T02:46:23.450Z,17.38
2022-11-08T02:48:52.471Z,17.27
2022-11-08T02:51:21.396Z,17.88
2022-11-08T02:53:50.301Z,17.85
2022-11-08T02:56:19.197Z,14.65
2022-11-08T02:58:48.124Z,13.48
2022-11-08T03:01:17.224Z,14.40
2022-11-08T03:03:46.296Z,13.32
2022-11-08T03:06:15.800Z,14.68
2022-11-08T03:08:44.770Z,13.07
2022-11-08T03:11:13.679Z,16.08
2022-11-08T03:13:42.554Z,14.27
2022-11-08T03:16:14.182Z,13.52
2022-11-08T03:18:43.295Z,17.08
2022-11-08T03:21:12.586Z,13.75
2022-11-08T03:23:42.087Z,14.48
2022-11-08T03:26:11.357Z,14.43
2022-11-08T03:28:40.494Z,15.27
2022-11-08T03:31:10.075Z,14.65
2022-11-08T03:33:39.145Z,14.80
2022-11-08T03:36:08.174Z,15.23
2022-11-08T03:38:37.090Z,14.77
2022-11-08T03:41:06.498Z,14.90
2022-11-08T03:43:35.516Z,13.48
2022-11-08T03:46:04.439Z,13.73
2022-11-08T03:48:33.468Z,14.45
2022-11-08T03:51:02.414Z,14.10
2022-11-08T03:53:31.278Z,14.43
2022-11-08T03:56:03.563Z,25.05
2022-11-08T03:58:32.434Z,13.88
2022-11-08T04:01:07.042Z,15.35
2022-11-08T04:03:36.393Z,13.93
2022-11-08T04:06:06.023Z,13.15
2022-11-08T04:08:35.041Z,13.15
2022-11-08T04:11:23.727Z,12.77
2022-11-08T04:14:10.634Z,14.38
2022-11-08T04:16:39.692Z,14.00
2022-11-08T04:19:26.795Z,14.73
2022-11-08T04:21:57.480Z,16.35
2022-11-08T04:24:29.380Z,13.80
2022-11-08T04:26:58.548Z,13.07
2022-11-08T04:29:27.828Z,12.75
2022-11-08T04:31:56.805Z,15.30
2022-11-08T04:34:25.763Z,13.25
2022-11-08T04:36:56.864Z,14.35
2022-11-08T04:39:25.878Z,14.93
2022-11-08T04:42:00.731Z,21.60
2022-11-08T04:44:30.970Z,13.93
2022-11-08T04:47:00.125Z,13.98
2022-11-08T04:49:29.356Z,14.82
2022-11-08T04:51:58.459Z,14.82
2022-11-08T04:54:27.419Z,15.27
2022-11-08T04:56:56.458Z,14.30
2022-11-08T04:59:26.520Z,14.18
2022-11-08T05:01:55.851Z,14.40
2022-11-08T05:04:24.796Z,13.85
2022-11-08T05:06:53.785Z,12.93
2022-11-08T05:09:22.826Z,14.05
2022-11-08T05:11:51.813Z,15.55
2022-11-08T05:14:20.965Z,13.35
2022-11-08T05:16:50.184Z,14.45
2022-11-08T05:19:38.933Z,13.07
2022-11-08T05:22:25.894Z,15.73
2022-11-08T05:24:55.017Z,14.90
2022-11-08T05:27:24.005Z,13.73
2022-11-08T05:29:52.945Z,12.50
2022-11-08T05:32:21.954Z,13.77
2022-11-08T05:34:50.960Z,13.10
2022-11-08T05:37:19.966Z,12.38
2022-11-08T05:39:48.938Z,12.90
2022-11-08T05:42:18.165Z,12.65
2022-11-08T05:44:47.216Z,14.32
2022-11-08T05:47:16.281Z,13.82
2022-11-08T05:49:45.207Z,13.60
2022-11-08T05:52:14.131Z,13.32
2022-11-08T05:54:43.065Z,14.07
2022-11-08T05:57:11.982Z,12.88
2022-11-08T05:59:41.041Z,12.60
2022-11-08T06:02:10.112Z,13.05
2022-11-08T06:04:39.207Z,12.88
2022-11-08T06:07:08.425Z,13.20
2022-11-08T06:09:37.572Z,12.63
2022-11-08T06:12:06.875Z,12.00
2022-11-08T06:14:35.877Z,12.30
2022-11-08T06:17:04.841Z,12.75
2022-11-08T06:19:33.794Z,12.77
2022-11-08T06:22:02.660Z,13.70
2022-11-08T06:24:31.672Z,12.77
2022-11-08T06:27:00.893Z,11.57
2022-11-08T06:29:30.090Z,12.07
2022-11-08T06:31:59.954Z,11.93
2022-11-08T06:34:28.869Z,12.57
2022-11-08T06:37:00.511Z,11.68
2022-11-08T06:39:30.501Z,13.00
2022-11-08T06:41:59.464Z,12.27
2022-11-08T06:44:28.695Z,15.15
2022-11-08T06:47:00.976Z,13.20
2022-11-08T06:49:29.912Z,12.07
2022-11-08T06:51:58.846Z,13.63
2022-11-08T06:54:27.773Z,11.73
2022-11-08T06:57:01.578Z,13.38
2022-11-08T06:59:31.032Z,12.27
2022-11-08T07:02:00.045Z,14.20
2022-11-08T07:04:29.275Z,14.77
2022-11-08T07:06:58.350Z,13.43
2022-11-08T07:09:27.413Z,13.98
2022-11-08T07:11:57.608Z,14.73
2022-11-08T07:14:26.593Z,12.57
2022-11-08T07:16:55.501Z,13.32
2022-11-08T07:19:24.533Z,12.20
2022-11-08T07:21:53.838Z,14.57
2022-11-08T07:24:24.953Z,13.50
2022-11-08T07:26:54.090Z,13.32
2022-11-08T07:29:23.181Z,13.63
2022-11-08T07:31:52.234Z,12.90
2022-11-08T07:34:21.871Z,13.30
2022-11-08T07:36:50.847Z,12.50
2022-11-08T07:39:20.263Z,13.40
2022-11-08T07:41:50.359Z,13.38
2022-11-08T07:44:19.603Z,12.95
2022-11-08T07:46:48.633Z,13.23
2022-11-08T07:49:17.609Z,13.38
2022-11-08T07:51:46.559Z,12.65
2022-11-08T07:54:15.504Z,13.07
2022-11-08T07:56:44.453Z,12.80
2022-11-08T07:59:13.631Z,13.07
2022-11-08T08:01:43.381Z,13.20
2022-11-08T08:04:13.717Z,12.77
2022-11-08T08:06:43.088Z,12.95
2022-11-08T08:09:12.563Z,12.90
2022-11-08T08:11:41.524Z,13.23
2022-11-08T08:14:10.526Z,13.48
2022-11-08T08:16:40.651Z,12.80
2022-11-08T08:19:09.719Z,19.00
2022-11-08T08:21:38.706Z,12.38
2022-11-08T08:24:10.114Z,12.98
2022-11-08T08:26:39.395Z,12.68
2022-11-08T08:29:08.454Z,13.13
2022-11-08T08:31:37.374Z,13.40
2022-11-08T08:34:06.521Z,13.40
2022-11-08T08:36:35.499Z,12.95
2022-11-08T08:39:04.579Z,13.27
2022-11-08T08:41:33.518Z,12.70
2022-11-08T08:44:02.609Z,13.25
2022-11-08T08:46:31.582Z,12.93
2022-11-08T08:49:00.535Z,14.15
2022-11-08T08:51:29.629Z,13.07
2022-11-08T08:53:59.612Z,14.55
2022-11-08T08:56:28.563Z,13.70
2022-11-08T09:01:46.509Z,13.82
2022-11-08T09:04:15.572Z,13.93
2022-11-08T09:06:44.615Z,13.88
2022-11-08T09:09:13.661Z,14.25
2022-11-08T09:11:42.556Z,14.50
2022-11-08T09:14:11.516Z,14.20
2022-11-08T09:16:40.504Z,13.73
2022-11-08T09:19:09.533Z,16.58
2022-11-08T09:21:38.507Z,13.60
2022-11-08T09:24:07.873Z,16.10
2022-11-08T09:26:36.990Z,14.13
2022-11-08T09:29:05.996Z,14.20
2022-11-08T09:31:34.906Z,15.98
2022-11-08T09:36:52.597Z,14.55
2022-11-08T09:39:21.936Z,14.15
2022-11-08T09:42:18.054Z,14.25
2022-11-08T09:45:21.295Z,15.50
2022-11-08T09:48:05.197Z,16.02
2022-11-08T09:50:46.406Z,15.77
2022-11-08T09:53:19.755Z,16.15
2022-11-08T09:56:03.873Z,15.10
2022-11-08T10:01:14.472Z,16.65
2022-11-08T10:03:49.061Z,16.02
2022-11-08T10:06:39.756Z,14.00
2022-11-08T10:09:33.370Z,16.02
2022-11-08T10:12:18.926Z,14.80
2022-11-08T10:14:53.946Z,24.85
2022-11-08T10:17:44.651Z,24.27
2022-11-08T10:20:44.374Z,17.70
2022-11-08T10:23:23.040Z,19.67
2022-11-08T10:26:02.364Z,15.18
2022-11-08T10:28:43.193Z,13.43
2022-11-08T10:31:14.977Z,15.45
2022-11-08T10:33:58.083Z,14.23
2022-11-08T10:36:42.664Z,17.45
2022-11-08T10:39:38.206Z,15.70
2022-11-08T10:42:14.184Z,17.58
2022-11-08T10:44:43.752Z,19.52
2022-11-08T10:47:28.244Z,20.33
2022-11-08T10:50:03.413Z,19.92
2022-11-08T10:52:42.371Z,19.70
2022-11-08T10:55:24.900Z,24.20
2022-11-08T10:57:54.496Z,22.92
2022-11-08T11:00:24.464Z,19.85
2022-11-08T11:03:00.920Z,19.35
2022-11-08T11:05:38.998Z,21.83
2022-11-08T11:08:17.569Z,22.98
2022-11-08T11:10:50.917Z,23.02
2022-11-08T11:13:30.674Z,19.67
2022-11-08T11:16:05.136Z,20.38
2022-11-08T11:18:39.867Z,22.65
2022-11-08T11:21:08.811Z,20.02
2022-11-08T11:23:47.086Z,18.17
2022-11-08T11:27:01.590Z,17.60
2022-11-08T11:29:35.064Z,20.58
2022-11-08T11:32:24.354Z,20.40
2022-11-08T11:35:04.725Z,22.80
2022-11-08T11:37:49.647Z,19.98
2022-11-08T11:40:38.688Z,18.90
2022-11-08T11:43:51.298Z,21.35
2022-11-08T11:46:30.805Z,21.13
2022-11-08T11:49:05.932Z,17.13
2022-11-08T11:51:34.935Z,18.30
2022-11-08T11:54:06.542Z,17.85
2022-11-08T11:56:46.870Z,17.30
2022-11-08T11:59:34.280Z,17.38
2022-11-08T12:02:24.707Z,19.45
2022-11-08T12:05:15.542Z,25.92
2022-11-08T12:08:02.155Z,28.67
2022-11-08T12:10:59.398Z,26.63
2022-11-08T12:13:51.623Z,19.85
2022-11-08T12:16:35.796Z,20.67
2022-11-08T12:19:10.949Z,19.50
2022-11-08T12:22:04.991Z,21.02
2022-11-08T12:24:49.153Z,20.15
2022-11-08T12:30:06.278Z,20.45
2022-11-08T12:33:12.083Z,21.30
2022-11-08T12:36:08.838Z,19.80
2022-11-08T12:38:58.881Z,27.88
2022-11-08T12:41:40.750Z,21.90
2022-11-08T12:44:34.314Z,21.33
2022-11-08T12:47:25.432Z,21.42
2022-11-08T12:50:15.768Z,21.13
2022-11-08T12:52:53.613Z,22.40
2022-11-08T12:55:31.698Z,23.10
2022-11-08T12:58:04.448Z,23.92
2022-11-08T13:00:34.603Z,23.20
2022-11-08T13:03:31.448Z,23.13
2022-11-08T13:06:26.443Z,23.63
2022-11-08T13:09:23.170Z,23.58
2022-11-08T13:12:05.851Z,23.17
2022-11-08T13:14:40.957Z,23.08
2022-11-08T13:17:21.576Z,26.42
2022-11-08T13:19:53.124Z,24.50
2022-11-08T13:22:32.297Z,23.25
2022-11-08T13:25:14.912Z,24.33
2022-11-08T13:27:45.866Z,23.95
2022-11-08T13:30:17.556Z,24.83
2022-11-08T13:32:56.105Z,25.38
2022-11-08T13:35:30.093Z,25.05
2022-11-08T13:41:00.782Z,25.00
2022-11-08T13:43:33.545Z,24.75
2022-11-08T13:46:30.733Z,23.58
2022-11-08T13:49:07.587Z,31.02
2022-11-08T13:51:40.655Z,32.22
2022-11-08T13:54:48.994Z,24.52
2022-11-08T13:57:22.005Z,24.45
2022-11-08T13:59:57.754Z,24.63
2022-11-08T14:02:26.829Z,28.13
2022-11-08T14:04:56.160Z,24.08
2022-11-08T14:07:48.678Z,26.05
2022-11-08T14:10:20.473Z,24.35
2022-11-08T14:12:58.616Z,27.05
2022-11-08T14:15:36.552Z,24.83
2022-11-08T14:18:30.439Z,24.92
2022-11-08T14:20:59.980Z,27.37
2022-11-08T14:23:37.612Z,23.88
2022-11-08T14:26:15.347Z,27.25
2022-11-08T14:28:46.746Z,27.55
2022-11-08T14:31:35.861Z,26.25
2022-11-08T14:34:04.958Z,23.63
2022-11-08T14:36:34.311Z,24.30
2022-11-08T14:39:18.761Z,23.73
2022-11-08T14:41:56.432Z,21.92
2022-11-08T14:44:26.340Z,22.98
2022-11-08T14:46:55.808Z,24.25
2022-11-08T14:49:36.235Z,22.63
2022-11-08T14:52:18.325Z,27.85
2022-11-08T14:54:50.395Z,22.25
2022-11-08T14:57:41.201Z,22.77
2022-11-08T15:00:20.050Z,22.05
2022-11-08T15:03:07.838Z,22.55
2022-11-08T15:05:41.850Z,21.98
2022-11-08T15:11:06.224Z,22.77
2022-11-08T15:13:50.038Z,22.38
2022-11-08T15:16:19.725Z,22.38
2022-11-08T15:18:48.840Z,21.27
2022-11-08T15:21:29.474Z,20.50
2022-11-08T15:24:15.919Z,22.42
2022-11-08T15:27:16.228Z,21.05
2022-11-08T15:29:51.337Z,20.40
2022-11-08T15:32:22.469Z,24.95
2022-11-08T15:34:58.355Z,22.77
2022-11-08T15:37:40.053Z,24.00
2022-11-08T15:40:17.985Z,24.95
2022-11-08T15:42:49.560Z,25.05
2022-11-08T15:45:18.502Z,25.95
2022-11-08T15:47:50.569Z,25.42
2022-11-08T15:50:30.856Z,26.63
2022-11-08T15:53:03.235Z,24.45
2022-11-08T15:55:33.547Z,24.95
2022-11-08T15:58:04.043Z,27.65
2022-11-08T16:00:39.376Z,27.23
2022-11-08T16:03:08.389Z,27.63
2022-11-08T16:05:37.349Z,26.30
2022-11-08T16:08:07.692Z,26.33
2022-11-08T16:10:59.566Z,26.45
2022-11-08T16:13:34.244Z,24.85
2022-11-08T16:16:05.884Z,27.50
2022-11-08T16:18:35.514Z,25.42
2022-11-08T16:21:04.926Z,25.73
2022-11-08T16:23:33.877Z,25.58
2022-11-08T16:26:04.372Z,27.35
2022-11-08T16:28:41.508Z,24.70
2022-11-08T16:31:17.409Z,26.20
2022-11-08T16:33:47.908Z,26.85
2022-11-08T16:36:25.665Z,26.80
2022-11-08T16:38:57.308Z,26.98
2022-11-08T16:41:27.391Z,26.50
2022-11-08T16:43:57.575Z,26.50
2022-11-08T16:46:26.521Z,24.30
2022-11-08T16:48:59.161Z,23.60
2022-11-08T16:51:28.463Z,28.30
2022-11-08T16:53:57.622Z,30.85
2022-11-08T16:56:26.500Z,27.48
2022-11-08T16:58:55.495Z,30.05
2022-11-08T17:01:34.359Z,26.35
2022-11-08T17:04:03.370Z,23.30
2022-11-08T17:06:32.681Z,24.92
2022-11-08T17:09:01.703Z,29.45
2022-11-08T17:11:30.662Z,30.35
2022-11-08T17:13:59.722Z,29.40
2022-11-08T17:16:28.703Z,31.10
2022-11-08T17:18:58.835Z,25.73
2022-11-08T17:21:44.373Z,26.63
2022-11-08T17:24:20.839Z,24.85
2022-11-08T17:26:51.358Z,25.20
2022-11-08T17:29:20.315Z,24.23
2022-11-08T17:31:49.813Z,24.95
2022-11-08T17:34:18.767Z,26.05
2022-11-08T17:36:47.841Z,24.85
2022-11-08T17:39:16.841Z,25.52
2022-11-08T17:41:45.822Z,24.52
2022-11-08T17:44:15.484Z,23.50
2022-11-08T17:46:44.847Z,23.50
2022-11-08T17:49:13.836Z,23.80
2022-11-08T17:51:42.785Z,23.30
2022-11-08T17:54:11.765Z,26.08
2022-11-08T17:56:40.704Z,22.33
2022-11-08T17:59:09.648Z,21.60
2022-11-08T18:01:39.615Z,23.73
2022-11-08T18:04:08.675Z,23.25
2022-11-08T18:06:39.928Z,23.92
2022-11-08T18:09:10.323Z,23.90
2022-11-08T18:11:39.443Z,23.17
2022-11-08T18:14:08.520Z,23.38
2022-11-08T18:16:39.008Z,23.67
2022-11-08T18:19:08.016Z,22.25
2022-11-08T18:21:37.593Z,23.25
2022-11-08T18:24:06.890Z,22.70
2022-11-08T18:26:36.032Z,23.55
2022-11-08T18:29:07.398Z,25.08
2022-11-08T18:31:36.933Z,25.13
2022-11-08T18:34:05.937Z,25.00
2022-11-08T18:36:35.048Z,23.73
2022-11-08T18:39:04.864Z,24.08
2022-11-08T18:41:35.216Z,25.08
2022-11-08T18:44:04.967Z,24.77
2022-11-08T18:46:38.802Z,23.50
2022-11-08T18:49:10.915Z,26.17
2022-11-08T18:51:40.107Z,25.08
2022-11-08T18:54:08.995Z,25.25
2022-11-08T18:56:37.975Z,24.15
2022-11-08T18:59:07.674Z,25.67
2022-11-08T19:01:37.322Z,23.60
2022-11-08T19:04:06.529Z,23.00
2022-11-08T19:06:35.675Z,24.77
2022-11-08T19:09:05.414Z,25.15
2022-11-08T19:11:34.359Z,24.35
2022-11-08T19:14:04.409Z,24.65
2022-11-08T19:16:33.443Z,23.95
2022-11-08T19:19:02.544Z,26.45
2022-11-08T19:21:31.603Z,25.02
2022-11-08T19:24:01.738Z,25.73
2022-11-08T19:26:31.298Z,24.85
2022-11-08T19:29:00.753Z,24.92
2022-11-08T19:31:29.709Z,25.27
2022-11-08T19:33:58.999Z,26.02
2022-11-08T19:36:30.084Z,26.13
2022-11-08T19:38:59.630Z,25.52
2022-11-08T19:41:30.165Z,24.13
2022-11-08T19:43:59.276Z,26.67
2022-11-08T19:46:32.145Z,27.52
2022-11-08T19:49:03.735Z,26.48
2022-11-08T19:51:34.724Z,26.20
2022-11-08T19:54:09.103Z,27.02
2022-11-08T19:57:03.022Z,26.05
2022-11-08T19:59:27.567Z,25.17
2022-11-08T20:01:56.496Z,26.20
2022-11-08T20:04:25.430Z,26.23
2022-11-08T20:06:54.541Z,25.27
2022-11-08T20:09:28.938Z,25.95
2022-11-08T20:11:59.432Z,26.83
2022-11-08T20:14:28.506Z,24.88
2022-11-08T20:16:57.485Z,26.60
2022-11-08T20:19:26.454Z,24.38
2022-11-08T20:21:59.092Z,26.13
2022-11-08T20:24:28.080Z,25.25
2022-11-08T20:26:57.129Z,26.55
2022-11-08T20:29:26.828Z,26.13
2022-11-08T20:31:56.612Z,27.20
2022-11-08T20:34:25.937Z,26.85
2022-11-08T20:36:55.152Z,28.05
2022-11-08T20:39:24.192Z,27.85
2022-11-08T20:41:53.107Z,29.70
2022-11-08T20:44:23.285Z,28.17
2022-11-08T20:46:53.011Z,28.50
2022-11-08T20:49:21.903Z,29.42
2022-11-08T20:51:50.993Z,28.65
2022-11-08T20:54:20.064Z,28.80
2022-11-08T20:56:49.081Z,29.33
2022-11-08T20:59:18.204Z,28.95
2022-11-08T21:01:47.306Z,28.27
2022-11-08T21:04:16.535Z,29.48
2022-11-08T21:06:45.447Z,29.42
2022-11-08T21:09:36.641Z,28.02
2022-11-08T21:12:04.397Z,29.10
2022-11-08T21:14:33.396Z,30.85
2022-11-08T21:19:52.956Z,29.23
2022-11-08T21:22:22.186Z,30.02
2022-11-08T21:24:51.177Z,27.63
2022-11-08T21:27:20.137Z,28.75
2022-11-08T21:29:49.525Z,31.20
2022-11-08T21:32:18.543Z,31.00
2022-11-08T21:34:48.358Z,30.60
2022-11-08T21:37:17.360Z,29.52
2022-11-08T21:39:46.305Z,30.63
2022-11-08T21:42:15.467Z,29.23
2022-11-08T21:44:44.364Z,29.98
2022-11-08T21:47:13.361Z,29.58
2022-11-08T21:49:42.271Z,31.30
2022-11-08T21:52:11.655Z,31.10
2022-11-08T21:54:41.589Z,30.77
2022-11-08T21:57:10.548Z,29.70
2022-11-08T21:59:39.436Z,29.33
2022-11-08T22:02:09.070Z,30.00
2022-11-08T22:04:38.356Z,29.25
2022-11-08T22:07:07.338Z,34.33
2022-11-08T22:09:36.375Z,34.33
2022-11-08T22:12:05.472Z,34.17
2022-11-08T22:14:34.522Z,33.75
2022-11-08T22:17:03.531Z,31.25
2022-11-08T22:19:32.646Z,30.23
2022-11-08T22:22:01.812Z,30.65
2022-11-08T22:24:30.871Z,31.10
2022-11-08T22:26:59.940Z,29.58
2022-11-08T22:29:28.897Z,28.40
2022-11-08T22:31:57.934Z,28.10
2022-11-08T22:34:26.943Z,26.95
2022-11-08T22:36:55.943Z,27.55
2022-11-08T22:39:25.534Z,29.88
2022-11-08T22:41:57.131Z,28.80
2022-11-08T22:44:26.063Z,28.40
2022-11-08T22:46:55.042Z,27.00
2022-11-08T22:49:24.088Z,27.40
2022-11-08T22:51:52.983Z,28.33
2022-11-08T22:54:21.950Z,27.13
2022-11-08T22:56:51.184Z,29.40
2022-11-08T22:59:20.126Z,30.08
2022-11-08T23:01:49.131Z,29.60
2022-11-08T23:04:18.174Z,31.38
2022-11-08T23:06:47.194Z,30.55
2022-11-08T23:09:16.146Z,28.17
2022-11-08T23:12:03.139Z,29.48
2022-11-08T23:14:50.192Z,30.02
2022-11-08T23:17:19.047Z,28.20
2022-11-08T23:20:06.013Z,28.98
2022-11-08T23:22:53.415Z,30.58
2022-11-08T23:25:22.327Z,29.63
2022-11-08T23:28:11.404Z,29.35
2022-11-08T23:31:00.130Z,31.38
2022-11-08T23:33:29.067Z,32.00
2022-11-08T23:36:13.314Z,32.17
2022-11-08T23:38:43.438Z,30.83
2022-11-08T23:41:31.162Z,30.38
2022-11-08T23:44:18.802Z,31.10
2022-11-08T23:46:47.747Z,32.22
2022-11-08T23:49:16.784Z,34.33
2022-11-08T23:51:45.986Z,33.67
2022-11-08T23:54:15.126Z,32.80
2022-11-08T23:56:44.456Z,32.25
2022-11-08T23:59:14.517Z,32.58
